Terminal Aerodrome Forecast
Issued by NWS

Home | Current Version | Previous Version | Text Only | Print | Product List | Glossary On
Versions: 1 2 3 4 5 6 7 8 9 10 11 12 13
000
FTUS45 KREV 210550
TAFRNO
TAF
KRNO 210550Z 2106/2206 VRB03KT P6SM SKC
     FM212200 11006KT P6SM FEW250
     FM220200 30009KT P6SM FEW070
     FM220500 VRB04KT P6SM FEW050=

USA.gov is the U.S. government's official web portal to all federal, state and local government web resources and services.